DW6005 Murcia ES current weather conditions

sailwx.info

Wind from 067 at 1 knots gusting 6

Air temperature 26.1° C
Dewpoint 15.8° C

Last reported at 2018-Jun-19 09:53 UTC.
Time now 2018-Jun-19 10:27 UTC

Location: N 38°03' W 001°06'.
View on Google Maps.

See reports from other nearby stations

  
Tides and Currents Weather Stations Pressure Air Temp Water Temp Dewpoint Dewpoint Depression Visibility Wind Speed Wind Dir Waves Ship Positions
date/time (UTC)wind fromknots sea level pressurealtimeterstation pressurevisibilityair tempwater tempwave heightnotes
2018-Jun-19 10:08 069 6 gusting 10 26.7
2018-Jun-19 09:53 067 1 gusting 6 26.1
2018-Jun-19 09:38 088 4 gusting 8 26.1
2018-Jun-19 09:23 076 2 gusting 7 25.0
2018-Jun-19 09:08 091 1 gusting 7 25.0
2018-Jun-19 08:53 016 2 gusting 8 25.0
2018-Jun-19 08:37 034 4 gusting 8 25.0
2018-Jun-19 08:22 044 0 gusting 6 24.4
2018-Jun-19 08:07 128 0 gusting 4 23.9
2018-Jun-19 07:52 067 1 gusting 5 23.3
2018-Jun-19 07:37 059 0 gusting 3 23.3
2018-Jun-19 07:22 070 0 gusting 2 23.3
2018-Jun-19 07:07 073 0 gusting 1 22.8
2018-Jun-19 06:52 073 22.8
2018-Jun-19 06:37 073 21.7
2018-Jun-19 06:22 073 21.1
2018-Jun-19 06:07 073 20.0
2018-Jun-19 05:52 073 19.4
2018-Jun-19 05:37 073 18.9
2018-Jun-19 05:22 073 18.9
2018-Jun-19 05:06 073 18.9
2018-Jun-19 04:51 073 18.9
2018-Jun-19 04:36 073 18.9
2018-Jun-19 04:21 073 18.9
2018-Jun-19 04:06 073 18.9
2018-Jun-19 03:51 073 18.9
2018-Jun-19 03:36 073 19.4
2018-Jun-19 03:21 073 19.4
2018-Jun-19 03:06 073 19.4
2018-Jun-19 02:51 073 19.4
2018-Jun-19 02:36 073 19.4
2018-Jun-19 02:21 073 20.0
2018-Jun-19 02:06 073 20.0
2018-Jun-19 01:51 073 20.0
2018-Jun-19 01:36 073 20.0
2018-Jun-19 01:21 073 20.0
2018-Jun-19 01:06 073 20.6
2018-Jun-19 00:51 073 20.6
2018-Jun-19 00:36 073 20.6
2018-Jun-19 00:21 073 20.6
2018-Jun-19 00:06 073 20.6
2018-Jun-18 23:51 073 20.6
2018-Jun-18 23:36 073 21.1
2018-Jun-18 23:21 073 21.1
2018-Jun-18 23:06 073 21.1
2018-Jun-18 22:51 073 21.7
2018-Jun-18 22:36 074 0 gusting 2 21.7
2018-Jun-18 22:21 074 0 gusting 2 21.7
2018-Jun-18 22:06 075 21.7
2018-Jun-18 21:51 077 1 gusting 2 21.7
2018-Jun-18 21:36 084 1 gusting 5 21.7
2018-Jun-18 21:21 069 0 gusting 3 22.2
2018-Jun-18 21:06 079 0 gusting 2 22.2
2018-Jun-18 20:51 084 0 gusting 3 22.2
2018-Jun-18 20:36 078 1 gusting 6 22.8
2018-Jun-18 20:21 071 4 gusting 7 22.8
2018-Jun-18 20:06 081 3 gusting 7 22.8
2018-Jun-18 19:51 088 3 gusting 7 23.3
2018-Jun-18 19:36 097 3 gusting 7 23.3
2018-Jun-18 19:21 087 5 gusting 7 23.9
2018-Jun-18 19:06 099 4 gusting 7 24.4
2018-Jun-18 18:51 096 6 gusting 9 24.4
2018-Jun-18 18:36 088 5 gusting 9 25.0
2018-Jun-18 18:21 080 5 gusting 11 25.0
2018-Jun-18 18:06 069 6 gusting 10 25.6
2018-Jun-18 17:51 097 6 gusting 9 25.6
2018-Jun-18 17:36 063 5 gusting 12 26.1
2018-Jun-18 17:21 117 7 gusting 12 26.1
2018-Jun-18 17:06 074 6 gusting 12 26.7
2018-Jun-18 16:51 097 6 gusting 10 26.7
2018-Jun-18 16:35 073 6 gusting 11 27.2
2018-Jun-18 16:21 074 5 gusting 10 27.8
2018-Jun-18 16:05 080 4 gusting 10 27.8
2018-Jun-18 15:50 073 6 gusting 13 27.8
2018-Jun-18 15:35 121 6 gusting 13 28.3
2018-Jun-18 15:20 088 7 gusting 13 28.3
2018-Jun-18 15:05 065 6 gusting 13 28.3
2018-Jun-18 14:50 084 7 gusting 13 28.9
2018-Jun-18 14:35 114 6 gusting 12 28.9
2018-Jun-18 14:20 106 5 gusting 12 28.9
2018-Jun-18 14:05 080 6 gusting 13 28.9
2018-Jun-18 13:50 069 6 gusting 12 28.9
2018-Jun-18 13:35 098 6 gusting 13 28.9
2018-Jun-18 13:20 121 6 gusting 11 28.9
2018-Jun-18 13:05 070 4 gusting 12 28.9
2018-Jun-18 12:50 088 6 gusting 10 28.9
2018-Jun-18 11:50 097 5 gusting 8 28.3
2018-Jun-18 11:35 059 2 gusting 11 27.8
2018-Jun-18 11:20 061 4 gusting 8 28.3
2018-Jun-18 11:05 066 6 gusting 11 28.3
2018-Jun-18 10:50 023 4 gusting 12 28.3
2018-Jun-18 10:35 068 2 gusting 8 27.8
2018-Jun-18 10:20 082 1 gusting 7 27.8
2018-Jun-18 10:05 074 1 gusting 6 27.8
2018-Jun-18 09:50 038 1 gusting 9 27.2
2018-Jun-18 09:35 023 0 gusting 4 27.2
2018-Jun-18 09:20 076 0 gusting 6 26.7
2018-Jun-18 09:05 071 2 gusting 6 26.7
2018-Jun-18 08:49 090 26.1
2018-Jun-18 08:34 071 1 gusting 3 25.6
2018-Jun-18 08:19 046 25.0
2018-Jun-18 08:04 048 0 gusting 2 25.0
2018-Jun-18 07:49 302 0 gusting 3 24.4
2018-Jun-18 07:34 227 0 gusting 2 23.9
2018-Jun-18 07:19 209 22.8
2018-Jun-18 07:04 235 0 gusting 4 22.2
2018-Jun-18 06:49 236 21.7
2018-Jun-18 06:34 236 21.7
2018-Jun-18 06:19 261 21.1
2018-Jun-18 06:04 261 20.6
2018-Jun-18 05:49 257 20.0
2018-Jun-18 05:34 254 19.4
2018-Jun-18 05:19 252 19.4
2018-Jun-18 05:03 259 0 gusting 3 19.4
2018-Jun-18 04:49 254 19.4
2018-Jun-18 04:33 242 19.4
2018-Jun-18 04:18 253 19.4
2018-Jun-18 04:03 254 19.4
2018-Jun-18 03:48 075 19.4
2018-Jun-18 03:33 074 19.4
2018-Jun-18 03:18 074 19.4
2018-Jun-18 03:03 074 20.0
2018-Jun-18 02:48 075 20.0
2018-Jun-18 02:33 075 20.0
2018-Jun-18 02:18 074 20.0
2018-Jun-18 02:03 074 20.0
2018-Jun-18 01:48 074 20.0
2018-Jun-18 01:33 074 20.0
2018-Jun-18 01:18 074 20.0
2018-Jun-18 01:03 080 0 gusting 2 20.6
2018-Jun-18 00:48 070 0 gusting 2 20.0
2018-Jun-18 00:33 072 0 gusting 2 20.6
2018-Jun-18 00:18 072 0 gusting 3 20.6
2018-Jun-18 00:03 076 0 gusting 4 21.1
2018-Jun-17 23:48 015 20.6
2018-Jun-17 23:33 015 0 gusting 2 21.1
2018-Jun-17 23:18 015 21.1
2018-Jun-17 23:03 032 1 gusting 3 21.7
2018-Jun-17 22:48 074 0 gusting 3 21.7
2018-Jun-17 22:33 072 0 gusting 4 21.7
2018-Jun-17 22:18 078 1 gusting 4 22.2
2018-Jun-17 22:03 078 1 gusting 5 22.2
2018-Jun-17 21:48 081 2 gusting 6 22.2
2018-Jun-17 21:33 085 2 gusting 6 22.2
2018-Jun-17 21:18 078 1 gusting 6 22.8
2018-Jun-17 21:03 063 2 gusting 5 22.8
2018-Jun-17 20:48 076 2 gusting 7 23.3
2018-Jun-17 20:33 078 2 gusting 6 23.3
2018-Jun-17 20:18 067 2 gusting 7 23.9
2018-Jun-17 20:03 047 2 gusting 6 24.4
2018-Jun-17 19:47 078 2 gusting 6 24.4
2018-Jun-17 19:32 073 2 gusting 6 25.0
2018-Jun-17 19:18 075 1 gusting 6 25.6
2018-Jun-17 19:03 115 3 gusting 7 26.1
2018-Jun-17 18:47 098 3 gusting 8 26.7
2018-Jun-17 18:32 066 4 gusting 7 27.2
2018-Jun-17 18:17 075 4 gusting 9 27.2
2018-Jun-17 18:02 069 5 gusting 11 27.2
2018-Jun-17 17:47 070 6 gusting 11 27.2
2018-Jun-17 17:32 094 6 gusting 11 27.8
2018-Jun-17 17:17 067 4 gusting 12 27.8
2018-Jun-17 17:02 065 6 gusting 12 28.3
2018-Jun-17 16:47 077 6 gusting 13 28.3
2018-Jun-17 16:32 096 6 gusting 13 28.3
2018-Jun-17 16:17 098 6 gusting 13 28.9
2018-Jun-17 16:02 096 6 gusting 12 29.4
2018-Jun-17 15:47 112 5 gusting 12 29.4
2018-Jun-17 15:32 112 6 gusting 12 29.4
2018-Jun-17 15:17 096 5 gusting 13 29.4
2018-Jun-17 15:02 094 6 gusting 11 30.0
2018-Jun-17 14:47 081 5 gusting 12 30.0
2018-Jun-17 14:32 088 5 gusting 13 29.4
2018-Jun-17 14:17 080 3 gusting 11 29.4
2018-Jun-17 14:02 107 6 gusting 12 30.0
2018-Jun-17 13:47 100 6 gusting 13 30.0
2018-Jun-17 13:32 096 5 gusting 10 30.0
2018-Jun-17 13:17 084 5 gusting 11 29.4
2018-Jun-17 13:02 105 6 gusting 10 29.4
2018-Jun-17 12:47 082 5 gusting 9 29.4
2018-Jun-17 12:32 094 6 gusting 13 29.4
2018-Jun-17 12:17 091 6 gusting 10 28.9
2018-Jun-17 12:02 081 2 gusting 10 28.9
2018-Jun-17 11:47 040 2 gusting 10 28.9
2018-Jun-17 11:32 096 4 gusting 10 28.3
2018-Jun-17 11:17 213 0 gusting 6 28.3
2018-Jun-17 11:02 090 2 gusting 8 27.8
2018-Jun-17 10:47 078 4 gusting 9 27.8
2018-Jun-17 10:32 071 2 gusting 8 27.8